createdAt,value
2022-11-20T00:00:25.634Z,80.84
2022-11-20T00:05:26.971Z,81.25
2022-11-20T00:10:28.224Z,80.63
2022-11-20T00:15:29.444Z,80.88
2022-11-20T00:20:31.127Z,82.46
2022-11-20T00:25:32.356Z,82.40
2022-11-20T00:30:33.669Z,81.16
2022-11-20T00:35:34.875Z,82.14
2022-11-20T00:40:36.095Z,81.66
2022-11-20T00:45:37.368Z,80.71
2022-11-20T00:50:38.684Z,80.29
2022-11-20T00:55:39.973Z,80.92
2022-11-20T01:00:41.448Z,80.25
2022-11-20T01:05:42.769Z,80.97
2022-11-20T01:10:43.993Z,80.12
2022-11-20T01:15:45.299Z,79.85
2022-11-20T01:20:46.586Z,80.76
2022-11-20T01:25:47.853Z,81.16
2022-11-20T01:30:49.212Z,80.50
2022-11-20T01:35:50.559Z,79.70
2022-11-20T01:40:51.792Z,80.48
2022-11-20T01:45:53.070Z,80.48
2022-11-20T01:50:54.820Z,81.31
2022-11-20T01:55:56.108Z,81.72
2022-11-20T02:00:57.381Z,83.07
2022-11-20T02:05:58.643Z,82.37
2022-11-20T02:10:59.897Z,81.73
2022-11-20T02:16:01.191Z,80.39
2022-11-20T02:21:02.479Z,80.55
2022-11-20T02:26:03.936Z,79.16
2022-11-20T02:31:05.224Z,78.62
2022-11-20T02:36:06.577Z,77.75
2022-11-20T02:41:07.849Z,77.47
2022-11-20T02:46:09.163Z,77.61
2022-11-20T02:51:10.456Z,77.14
2022-11-20T02:56:11.678Z,76.34
2022-11-20T03:01:12.966Z,76.90
2022-11-20T03:06:14.847Z,76.98
2022-11-20T03:11:16.234Z,76.40
2022-11-20T03:16:17.545Z,76.61
2022-11-20T03:21:18.915Z,76.51
2022-11-20T03:26:20.337Z,77.08
2022-11-20T03:31:21.573Z,77.31
2022-11-20T03:36:22.864Z,77.33
2022-11-20T03:41:24.072Z,77.30
2022-11-20T03:46:25.396Z,77.62
2022-11-20T03:51:26.668Z,78.41
2022-11-20T03:56:27.972Z,78.71
2022-11-20T04:01:29.413Z,78.32
2022-11-20T04:06:30.719Z,78.57
2022-11-20T04:11:32.004Z,78.30
2022-11-20T04:16:33.277Z,78.50
2022-11-20T04:21:34.713Z,78.67
2022-11-20T04:26:36.006Z,78.74
2022-11-20T04:31:37.287Z,78.29
2022-11-20T04:36:38.581Z,77.91
2022-11-20T04:41:39.805Z,78.81
2022-11-20T04:46:41.021Z,79.59
2022-11-20T04:51:42.303Z,78.96
2022-11-20T04:56:44.397Z,78.85
2022-11-20T05:01:46.025Z,79.63
2022-11-20T05:06:47.402Z,79.32
2022-11-20T05:11:51.500Z,79.66
2022-11-20T05:16:53.116Z,79.50
2022-11-20T05:21:54.323Z,79.62
2022-11-20T05:26:55.615Z,79.60
2022-11-20T05:31:56.847Z,79.41
2022-11-20T05:36:58.138Z,78.84
2022-11-20T05:42:18.290Z,78.65
2022-11-20T05:47:19.589Z,78.28
2022-11-20T05:52:20.840Z,78.02
2022-11-20T05:57:22.073Z,78.62
2022-11-20T06:02:23.377Z,78.76
2022-11-20T06:07:24.714Z,78.49
2022-11-20T06:12:25.963Z,78.70
2022-11-20T06:17:27.179Z,78.31
2022-11-20T06:22:28.435Z,78.72
2022-11-20T06:27:29.812Z,80.09
2022-11-20T06:32:31.039Z,79.42
2022-11-20T06:37:32.365Z,79.45
2022-11-20T06:42:33.597Z,78.85
2022-11-20T06:47:34.808Z,79.54
2022-11-20T06:52:39.531Z,79.84
2022-11-20T06:57:44.704Z,80.40
2022-11-20T07:02:45.994Z,80.87
2022-11-20T07:07:47.255Z,80.43
2022-11-20T07:12:48.479Z,80.50
2022-11-20T07:17:49.702Z,80.75
2022-11-20T07:22:51.006Z,80.88
2022-11-20T07:27:52.247Z,80.48
2022-11-20T07:32:53.606Z,81.06
2022-11-20T07:37:54.952Z,80.88
2022-11-20T07:42:56.490Z,81.10
2022-11-20T07:47:57.771Z,81.90
2022-11-20T07:52:59.619Z,82.74
2022-11-20T07:58:00.844Z,83.49
2022-11-20T08:03:02.096Z,84.40
2022-11-20T08:08:03.342Z,84.57
2022-11-20T08:13:23.487Z,84.94
2022-11-20T08:18:32.860Z,85.17
2022-11-20T08:23:34.407Z,84.71
2022-11-20T08:28:35.692Z,84.39
2022-11-20T08:33:37.028Z,83.13
2022-11-20T08:38:38.504Z,83.30
2022-11-20T08:43:39.750Z,82.91
2022-11-20T08:48:40.980Z,81.99
2022-11-20T08:53:42.257Z,81.29
2022-11-20T08:59:16.139Z,81.51
2022-11-20T09:04:05.667Z,82.25
2022-11-20T09:09:07.243Z,83.37
2022-11-20T09:14:08.571Z,84.42
2022-11-20T09:24:31.031Z,84.56
2022-11-20T09:29:32.233Z,84.33
2022-11-20T09:34:33.440Z,84.91
2022-11-20T09:39:35.508Z,84.59
2022-11-20T09:44:36.763Z,84.35
2022-11-20T09:49:38.029Z,83.96
2022-11-20T09:54:39.314Z,85.16
2022-11-20T09:59:40.733Z,85.24
2022-11-20T10:04:42.175Z,85.39
2022-11-20T10:09:44.252Z,84.90
2022-11-20T10:14:45.515Z,84.52
2022-11-20T10:19:46.864Z,84.14
2022-11-20T10:24:48.158Z,84.05
2022-11-20T10:29:49.459Z,83.40
2022-11-20T10:34:50.774Z,83.23
2022-11-20T10:39:52.017Z,84.14
2022-11-20T10:45:05.805Z,83.70
2022-11-20T10:50:11.162Z,83.57
2022-11-20T10:55:12.490Z,83.95
2022-11-20T11:00:14.757Z,83.35
2022-11-20T11:05:16.093Z,83.39
2022-11-20T11:10:17.696Z,83.00
2022-11-20T11:15:18.970Z,83.94
2022-11-20T11:20:20.282Z,83.47
2022-11-20T11:25:21.592Z,82.77
2022-11-20T11:30:23.020Z,83.44
2022-11-20T11:35:24.342Z,82.55
2022-11-20T11:40:28.100Z,83.82
2022-11-20T11:45:29.418Z,83.55
2022-11-20T11:50:30.826Z,83.57
2022-11-20T11:55:32.086Z,82.96
2022-11-20T12:00:34.474Z,83.92
2022-11-20T12:05:35.718Z,84.01
2022-11-20T12:10:36.932Z,84.25
2022-11-20T12:15:38.196Z,83.54
2022-11-20T12:20:39.459Z,83.59
2022-11-20T12:25:40.680Z,83.60
2022-11-20T12:30:41.934Z,84.07
2022-11-20T12:35:43.752Z,83.10
2022-11-20T12:40:44.997Z,82.76
2022-11-20T12:45:46.249Z,83.21
2022-11-20T12:51:13.490Z,83.28
2022-11-20T12:56:08.823Z,88.51
2022-11-20T13:01:10.102Z,76.21
2022-11-20T13:06:11.343Z,74.30
2022-11-20T13:11:12.597Z,76.45
2022-11-20T13:16:14.728Z,68.16
2022-11-20T13:21:16.232Z,71.15
2022-11-20T13:26:17.445Z,77.40
2022-11-20T13:31:18.686Z,74.86
2022-11-20T13:36:19.930Z,77.91
2022-11-20T13:41:32.171Z,78.71
2022-11-20T13:46:33.429Z,79.45
2022-11-20T13:51:34.698Z,81.02
2022-11-20T13:56:36.030Z,81.09
2022-11-20T14:01:37.305Z,81.08
2022-11-20T14:06:38.574Z,80.41
2022-11-20T14:11:40.020Z,80.74
2022-11-20T14:16:41.252Z,81.19
2022-11-20T14:21:42.509Z,80.18
2022-11-20T14:26:43.924Z,79.75
2022-11-20T14:31:48.788Z,80.11
2022-11-20T14:36:52.535Z,82.16
2022-11-20T14:41:53.792Z,83.19
2022-11-20T14:46:55.047Z,81.81
2022-11-20T14:51:56.284Z,82.78
2022-11-20T14:56:57.520Z,84.20
2022-11-20T15:01:58.787Z,84.98
2022-11-20T15:07:00.109Z,83.38
2022-11-20T15:12:01.470Z,82.97
2022-11-20T15:17:02.714Z,82.83
2022-11-20T15:22:03.927Z,82.70
2022-11-20T15:27:05.189Z,83.91
2022-11-20T15:32:11.956Z,83.43
2022-11-20T15:37:14.542Z,84.14
2022-11-20T15:42:15.809Z,84.97
2022-11-20T15:47:18.184Z,84.58
2022-11-20T15:52:19.393Z,84.60
2022-11-20T15:57:20.745Z,83.95
2022-11-20T16:02:22.226Z,83.40
2022-11-20T16:07:23.571Z,83.66
2022-11-20T16:12:51.178Z,84.46
2022-11-20T16:17:52.545Z,82.86
2022-11-20T16:22:53.828Z,82.24
2022-11-20T16:27:55.158Z,83.19
2022-11-20T16:32:56.407Z,83.10
2022-11-20T16:37:57.689Z,82.47
2022-11-20T16:42:58.956Z,81.10
2022-11-20T16:48:00.210Z,79.84
2022-11-20T16:53:01.470Z,79.15
2022-11-20T16:58:02.719Z,79.41
2022-11-20T17:03:03.961Z,78.77
2022-11-20T17:08:05.172Z,79.96
2022-11-20T17:13:06.430Z,79.33
2022-11-20T17:18:07.806Z,79.23
2022-11-20T17:23:09.028Z,79.13
2022-11-20T17:28:10.308Z,79.88
2022-11-20T17:33:11.546Z,78.89
2022-11-20T17:38:12.791Z,78.16
2022-11-20T17:43:14.026Z,78.53
2022-11-20T17:48:15.240Z,77.74
2022-11-20T17:53:16.497Z,78.38
2022-11-20T17:58:17.772Z,77.73
2022-11-20T18:03:19.081Z,77.35
2022-11-20T18:08:20.652Z,77.18
2022-11-20T18:13:47.475Z,76.95
2022-11-20T18:18:49.038Z,77.53
2022-11-20T18:23:50.293Z,77.18
2022-11-20T18:28:51.728Z,77.07
2022-11-20T18:33:54.864Z,76.62
2022-11-20T18:38:56.159Z,76.13
2022-11-20T18:44:16.261Z,77.22
2022-11-20T18:49:17.472Z,77.31
2022-11-20T18:54:18.733Z,77.31
2022-11-20T18:59:20.026Z,77.92
2022-11-20T19:04:21.563Z,77.07
2022-11-20T19:09:23.574Z,76.90
2022-11-20T19:14:25.084Z,76.40
2022-11-20T19:19:26.523Z,76.83
2022-11-20T19:24:28.451Z,77.06
2022-11-20T19:29:29.961Z,77.92
2022-11-20T19:34:32.457Z,77.41
2022-11-20T19:39:35.485Z,77.08
2022-11-20T19:44:36.840Z,76.98
2022-11-20T19:49:40.046Z,76.68
2022-11-20T19:54:41.253Z,77.37
2022-11-20T19:59:42.678Z,78.59
2022-11-20T20:04:46.817Z,78.94
2022-11-20T20:09:48.061Z,78.92
2022-11-20T20:14:49.268Z,78.86
2022-11-20T20:19:50.479Z,79.21
2022-11-20T20:24:52.207Z,79.52
2022-11-20T20:29:53.454Z,81.68
2022-11-20T20:34:55.411Z,80.80
2022-11-20T20:39:56.675Z,80.94
2022-11-20T20:45:07.275Z,81.28
2022-11-20T20:50:08.766Z,80.81
2022-11-20T20:55:10.094Z,80.74
2022-11-20T21:00:11.458Z,80.66
2022-11-20T21:05:12.801Z,81.47
2022-11-20T21:10:14.064Z,80.71
2022-11-20T21:15:15.334Z,80.85
2022-11-20T21:20:35.268Z,80.67
2022-11-20T21:25:36.672Z,90.02
2022-11-20T21:30:37.914Z,77.91
2022-11-20T21:35:39.151Z,76.07
2022-11-20T21:40:40.366Z,77.36
2022-11-20T21:45:41.584Z,78.10
2022-11-20T21:50:42.820Z,77.91
2022-11-20T21:55:44.085Z,78.59
2022-11-20T22:00:45.343Z,79.85
2022-11-20T22:05:46.627Z,81.48
2022-11-20T22:10:47.877Z,82.98
2022-11-20T22:16:01.629Z,84.49
2022-11-20T22:21:02.898Z,85.42
2022-11-20T22:26:04.497Z,84.09
2022-11-20T22:31:05.746Z,84.72
2022-11-20T22:36:06.953Z,84.11
2022-11-20T22:41:08.144Z,83.27
2022-11-20T22:46:09.414Z,83.59
2022-11-20T22:51:10.678Z,83.78
2022-11-20T22:56:15.065Z,84.07
2022-11-20T23:01:16.277Z,84.17
2022-11-20T23:06:17.531Z,84.98
2022-11-20T23:11:18.784Z,85.85
2022-11-20T23:16:20.009Z,86.17
2022-11-20T23:21:21.313Z,86.47
2022-11-20T23:26:22.603Z,86.89
2022-11-20T23:31:23.868Z,86.82
2022-11-20T23:36:25.155Z,87.54
2022-11-20T23:41:26.451Z,87.60
2022-11-20T23:46:27.690Z,88.07
2022-11-20T23:51:28.982Z,88.56
2022-11-20T23:56:30.197Z,89.63
